Time;durP1;ratioP1;P1;durP2;ratioP2;P2;SDS_P1;SDS_P2;PMS_P1;PMS_P2;Temp;Humidity;BMP_temperature;BMP_pressure;BME280_temperature;BME280_humidity;BME280_pressure;Samples;Min_cycle;Max_cycle;Signal;HPM_P1;HPM_P2
2021/11/01 00:00:47;;;;;;;6.78;2.33;;;20.60;77.80;;;;;;5084366;28;20083;-64
2021/11/01 00:03:14;;;;;;;9.63;2.65;;;20.60;77.80;;;;;;5082713;28;20439;-64
2021/11/01 00:05:41;;;;;;;7.63;2.17;;;20.60;78.00;;;;;;5083961;28;20043;-75
2021/11/01 00:08:07;;;;;;;8.77;2.67;;;20.60;77.60;;;;;;5084074;28;20095;-64
2021/11/01 00:10:34;;;;;;;12.57;2.90;;;20.60;77.40;;;;;;5085066;28;20032;-65
2021/11/01 00:13:02;;;;;;;7.38;2.88;;;20.60;77.40;;;;;;5082775;28;20031;-64
2021/11/01 00:15:28;;;;;;;9.52;3.08;;;20.60;77.20;;;;;;5085102;28;20126;-66
2021/11/01 00:17:55;;;;;;;5.43;2.88;;;20.50;77.30;;;;;;5083551;28;20107;-64
2021/11/01 00:20:23;;;;;;;5.32;2.78;;;20.60;77.50;;;;;;5083917;28;20135;-64
2021/11/01 00:22:50;;;;;;;3.42;2.47;;;20.50;77.10;;;;;;5083425;28;20024;-74
2021/11/01 00:25:17;;;;;;;6.20;2.28;;;20.50;77.20;;;;;;5083927;28;20035;-64
2021/11/01 00:27:44;;;;;;;8.35;2.28;;;20.50;77.40;;;;;;5084776;28;20104;-64
2021/11/01 00:30:12;;;;;;;10.18;2.83;;;20.50;77.50;;;;;;5083712;28;20020;-64
2021/11/01 00:32:39;;;;;;;6.22;2.65;;;20.40;77.50;;;;;;5083708;28;20032;-64
2021/11/01 00:35:06;;;;;;;5.35;2.10;;;20.40;77.50;;;;;;5083333;28;20031;-65
2021/11/01 00:37:33;;;;;;;6.68;2.10;;;20.50;77.50;;;;;;5084087;28;20023;-70
2021/11/01 00:40:00;;;;;;;6.18;2.50;;;20.50;77.50;;;;;;5084510;28;20047;-65
2021/11/01 00:42:28;;;;;;;4.25;2.33;;;20.40;77.40;;;;;;5083586;28;20012;-63
2021/11/01 00:44:55;;;;;;;5.95;2.20;;;20.50;77.50;;;;;;5083235;28;20494;-64
2021/11/01 00:47:22;;;;;;;6.97;1.75;;;20.50;77.40;;;;;;5082470;28;20023;-64
2021/11/01 00:49:50;;;;;;;6.82;2.38;;;20.50;77.50;;;;;;5084767;28;20016;-65
2021/11/01 00:52:22;;;;;;;4.28;1.75;;;20.50;77.50;;;;;;5082967;28;20023;-73
2021/11/01 00:54:50;;;;;;;5.88;1.48;;;20.40;77.50;;;;;;5083415;28;20378;-64
2021/11/01 00:57:17;;;;;;;4.03;1.30;;;20.50;77.60;;;;;;5084129;28;20072;-64
2021/11/01 00:59:43;;;;;;;5.00;1.45;;;20.40;77.50;;;;;;5083968;28;20047;-65
2021/11/01 01:02:11;;;;;;;3.63;1.60;;;20.40;77.50;;;;;;5084581;28;20013;-64
2021/11/01 01:04:38;;;;;;;5.00;1.48;;;20.40;77.70;;;;;;5081880;28;20501;-64
2021/11/01 01:07:06;;;;;;;5.65;1.85;;;20.40;77.70;;;;;;5084581;28;20024;-64
2021/11/01 01:09:33;;;;;;;4.38;1.30;;;20.40;77.80;;;;;;5082989;28;20485;-64
2021/11/01 01:12:00;;;;;;;5.38;1.73;;;20.40;77.90;;;;;;5083714;28;20027;-65
2021/11/01 01:14:29;;;;;;;6.75;1.92;;;20.30;78.10;;;;;;5084898;28;20026;-68
2021/11/01 01:16:58;;;;;;;9.52;2.58;;;20.40;79.00;;;;;;5087769;28;20561;-65
2021/11/01 01:19:30;;;;;;;8.73;2.25;;;20.40;79.80;;;;;;5087946;28;20065;-65
2021/11/01 01:24:42;;;;;;;6.13;1.60;;;20.30;80.50;;;;;;5086350;28;20568;-65
2021/11/01 01:27:08;;;;;;;4.65;1.15;;;20.20;80.00;;;;;;5087279;28;20021;-70
2021/11/01 01:29:35;;;;;;;3.80;1.17;;;20.10;79.90;;;;;;5087471;28;20110;-67
2021/11/01 01:32:01;;;;;;;4.90;1.05;;;20.00;80.00;;;;;;5087676;28;20039;-66
2021/11/01 01:34:28;;;;;;;3.70;1.25;;;19.90;80.60;;;;;;5085904;28;20040;-64
2021/11/01 01:36:54;;;;;;;1.83;0.85;;;19.80;81.30;;;;;;5088499;28;20036;-64
2021/11/01 01:39:21;;;;;;;3.05;1.10;;;19.80;81.80;;;;;;5085994;28;20020;-64
2021/11/01 01:41:48;;;;;;;1.08;0.65;;;19.70;81.70;;;;;;5087339;28;20479;-66
2021/11/01 01:44:15;;;;;;;4.95;1.10;;;19.70;82.00;;;;;;5085403;28;20047;-64
2021/11/01 01:46:42;;;;;;;2.03;0.88;;;19.60;82.30;;;;;;5087506;28;20039;-64
2021/11/01 01:49:09;;;;;;;0.95;0.55;;;19.60;82.30;;;;;;5087045;28;20015;-66
2021/11/01 01:51:37;;;;;;;2.65;0.77;;;19.60;82.60;;;;;;5086618;28;20106;-66
2021/11/01 01:54:04;;;;;;;1.10;0.93;;;19.60;82.90;;;;;;5086124;28;20024;-64
2021/11/01 01:56:30;;;;;;;1.05;0.82;;;19.60;83.00;;;;;;5086513;28;20427;-64
2021/11/01 01:59:02;;;;;;;1.33;0.80;;;19.50;83.00;;;;;;5087583;28;20035;-65
2021/11/01 02:01:29;;;;;;;1.77;0.80;;;19.50;83.10;;;;;;5085676;28;20024;-65
2021/11/01 02:03:57;;;;;;;2.55;0.73;;;19.50;83.00;;;;;;5086223;28;20016;-65
2021/11/01 02:07:12;;;;;;;5.22;0.82;;;19.50;83.50;;;;;;5085952;28;20043;-64
2021/11/01 02:10:16;;;;;;;3.50;0.88;;;19.40;83.60;;;;;;5086550;28;20016;-65
2021/11/01 02:13:09;;;;;;;2.28;0.95;;;19.40;83.70;;;;;;5002751;28;20504;-65
2021/11/01 02:15:52;;;;;;;1.90;1.60;;;19.40;83.60;;;;;;5085998;28;20076;-65
2021/11/01 02:18:23;;;;;;;2.22;0.98;;;19.40;83.20;;;;;;5086135;28;20467;-65
2021/11/01 02:21:30;;;;;;;9.13;3.60;;;19.30;83.40;;;;;;5087756;28;20028;-64
2021/11/01 02:24:04;;;;;;;12.65;11.35;;;19.30;83.40;;;;;;5071656;28;20039;-66
2021/11/01 02:26:32;;;;;;;13.30;12.15;;;19.30;83.00;;;;;;5085073;28;20127;-65
2021/11/01 02:29:00;;;;;;;7.95;7.22;;;19.30;83.10;;;;;;5086629;28;20075;-64
2021/11/01 02:31:27;;;;;;;2.22;2.03;;;19.30;83.10;;;;;;5085721;28;20020;-65
2021/11/01 02:33:54;;;;;;;5.55;1.00;;;19.30;83.00;;;;;;5085115;28;20044;-65
2021/11/01 02:36:21;;;;;;;2.63;0.85;;;19.30;83.00;;;;;;5085809;28;20244;-65
2021/11/01 02:38:52;;;;;;;1.00;0.90;;;19.20;83.10;;;;;;5086851;28;20020;-65
2021/11/01 02:41:21;;;;;;;1.02;0.57;;;19.20;83.30;;;;;;5086659;28;20419;-65
2021/11/01 02:43:56;;;;;;;1.75;0.60;;;19.20;83.30;;;;;;5084149;28;20471;-64
2021/11/01 02:46:24;;;;;;;2.72;2.53;;;19.20;83.40;;;;;;5086146;28;20046;-65
2021/11/01 02:48:52;;;;;;;3.20;1.65;;;19.20;83.40;;;;;;5085490;28;20039;-64
2021/11/01 02:51:20;;;;;;;2.20;2.00;;;19.20;83.40;;;;;;5086423;28;20012;-63
2021/11/01 02:53:48;;;;;;;6.00;4.35;;;19.20;83.80;;;;;;5083800;28;20112;-63
2021/11/01 02:56:15;;;;;;;7.15;2.75;;;19.20;84.00;;;;;;5086565;28;20024;-63
2021/11/01 02:58:43;;;;;;;1.67;1.17;;;19.20;84.30;;;;;;5086567;28;20028;-63
2021/11/01 03:01:11;;;;;;;1.55;1.30;;;19.20;84.30;;;;;;5084960;28;20038;-64
2021/11/01 03:03:39;;;;;;;1.75;0.95;;;19.20;84.40;;;;;;5084707;28;20039;-64
2021/11/01 03:06:06;;;;;;;2.15;1.27;;;19.10;84.30;;;;;;5084891;28;20032;-64
2021/11/01 03:08:34;;;;;;;1.42;0.93;;;19.10;84.60;;;;;;5086394;28;20024;-65
2021/11/01 03:11:02;;;;;;;0.70;0.70;;;19.10;85.00;;;;;;5085340;28;20118;-70
2021/11/01 03:13:32;;;;;;;1.55;0.70;;;19.00;85.20;;;;;;5084343;28;20060;-64
2021/11/01 03:16:01;;;;;;;2.13;0.82;;;19.00;85.20;;;;;;5085553;28;20032;-69
2021/11/01 03:18:32;;;;;;;0.95;0.65;;;19.00;85.30;;;;;;5085389;28;20020;-65
2021/11/01 03:21:00;;;;;;;1.77;0.93;;;19.00;85.40;;;;;;5068164;28;20043;-65
2021/11/01 03:23:33;;;;;;;0.80;0.80;;;18.90;85.30;;;;;;5083561;28;20012;-65
2021/11/01 03:26:03;;;;;;;1.13;0.85;;;18.90;85.30;;;;;;5085431;28;20028;-65
2021/11/01 03:28:31;;;;;;;2.50;0.93;;;18.90;85.20;;;;;;5085005;28;20636;-64
2021/11/01 03:30:59;;;;;;;0.80;0.80;;;18.90;84.80;;;;;;5085636;28;20039;-65
2021/11/01 03:33:33;;;;;;;2.42;1.33;;;18.90;84.80;;;;;;5083977;28;20028;-66
2021/11/01 03:36:01;;;;;;;1.38;0.90;;;18.90;85.20;;;;;;5084249;28;20024;-65
2021/11/01 03:38:28;;;;;;;2.88;1.20;;;18.80;84.90;;;;;;5085727;28;20016;-65
2021/11/01 03:40:55;;;;;;;2.15;0.80;;;18.90;84.90;;;;;;5084523;28;20028;-65
2021/11/01 03:43:35;;;;;;;1.50;0.80;;;18.80;84.70;;;;;;5084311;28;20475;-65
2021/11/01 03:46:04;;;;;;;3.45;0.93;;;18.80;84.50;;;;;;5083785;28;20109;-65
2021/11/01 03:48:36;;;;;;;1.50;0.80;;;18.80;84.10;;;;;;5085183;28;20420;-64
2021/11/01 03:51:37;;;;;;;1.98;0.88;;;18.80;84.00;;;;;;5086034;28;20086;-64
2021/11/01 03:54:00;;;;;;;68.70;58.65;;;18.80;84.40;;;;;;5082864;28;20137;-65
2021/11/01 03:56:28;;;;;;;12.40;8.63;;;18.80;84.60;;;;;;5084380;28;20386;-70
2021/11/01 03:58:56;;;;;;;3.03;2.03;;;18.80;84.60;;;;;;5084301;28;20510;-65
2021/11/01 04:01:23;;;;;;;2.20;1.00;;;18.80;84.60;;;;;;5083939;28;20024;-70
2021/11/01 04:03:49;;;;;;;1.63;0.90;;;18.80;84.60;;;;;;5083121;28;20004;-65
2021/11/01 04:06:21;;;;;;;1.45;0.95;;;18.80;84.90;;;;;;5082503;28;20044;-65
2021/11/01 04:08:48;;;;;;;7.88;1.15;;;18.80;84.40;;;;;;5085033;28;20016;-65
2021/11/01 04:11:17;;;;;;;2.15;1.25;;;18.80;84.20;;;;;;5083482;28;20386;-68
2021/11/01 04:13:43;;;;;;;1.77;1.15;;;18.80;84.30;;;;;;5083183;28;20028;-65
2021/11/01 04:16:12;;;;;;;3.03;1.80;;;18.80;84.60;;;;;;5083847;28;20027;-70
2021/11/01 04:18:54;;;;;;;3.50;1.77;;;18.80;84.50;;;;;;5084043;28;20018;-67
2021/11/01 04:21:20;;;;;;;2.78;1.58;;;18.80;84.50;;;;;;5084531;28;20088;-66
2021/11/01 04:23:47;;;;;;;4.22;1.48;;;18.80;84.20;;;;;;5081491;28;20028;-65
2021/11/01 04:26:19;;;;;;;2.42;1.42;;;18.80;84.00;;;;;;5085151;28;20105;-69
2021/11/01 04:28:46;;;;;;;28.17;25.08;;;18.80;83.90;;;;;;5083394;28;20031;-67
2021/11/01 04:31:22;;;;;;;11.13;6.30;;;18.90;83.90;;;;;;5085058;28;20371;-65
2021/11/01 04:33:50;;;;;;;5.80;1.95;;;18.90;84.10;;;;;;5082306;28;20032;-66
2021/11/01 04:36:16;;;;;;;2.35;1.08;;;18.80;83.90;;;;;;5078560;28;20111;-67
2021/11/01 04:41:17;;;;;;;7.32;2.08;;;18.80;84.10;;;;;;5081387;28;20023;-66
2021/11/01 04:54:25;;;;;;;2.10;0.93;;;18.70;84.40;;;;;;5079510;28;20047;-66
2021/11/01 04:56:53;;;;;;;2.70;0.93;;;18.70;85.50;;;;;;5083123;28;20032;-69
2021/11/01 04:59:21;;;;;;;5.72;1.30;;;18.70;84.80;;;;;;5078134;28;20172;-68
2021/11/01 05:01:51;;;;;;;5.50;2.38;;;18.80;85.20;;;;;;5082222;28;20046;-66
2021/11/01 05:04:20;;;;;;;4.07;0.90;;;18.80;85.50;;;;;;5081922;28;20036;-67
2021/11/01 05:06:56;;;;;;;6.88;1.85;;;18.80;85.80;;;;;;5080633;28;20161;-69
2021/11/01 05:09:35;;;;;;;3.35;1.10;;;18.80;86.10;;;;;;5082037;28;20028;-65
2021/11/01 05:14:39;;;;;;;7.57;1.35;;;18.90;86.00;;;;;;5081999;28;20023;-65
2021/11/01 05:17:34;;;;;;;3.67;1.27;;;18.90;86.10;;;;;;5083311;28;20071;-71
2021/11/01 05:20:21;;;;;;;5.55;1.25;;;18.90;86.00;;;;;;5080595;28;20059;-66
2021/11/01 05:22:54;;;;;;;2.55;1.27;;;18.90;85.90;;;;;;5081393;28;20111;-67
2021/11/01 05:25:31;;;;;;;6.88;1.70;;;18.90;86.00;;;;;;5082254;28;20116;-64
2021/11/01 05:28:03;;;;;;;2.72;1.42;;;19.00;86.00;;;;;;5086362;28;20015;-64
2021/11/01 05:30:34;;;;;;;6.28;1.55;;;19.00;85.90;;;;;;5086910;28;20028;-63
2021/11/01 05:35:39;;;;;;;69.47;61.83;;;19.00;85.30;;;;;;5085306;28;20043;-62
2021/11/01 05:38:06;;;;;;;11.00;7.35;;;19.10;85.40;;;;;;5084026;28;20029;-63
2021/11/01 05:40:34;;;;;;;10.02;1.75;;;19.20;85.20;;;;;;5088517;28;20020;-63
2021/11/01 05:43:01;;;;;;;6.05;1.10;;;19.20;85.10;;;;;;5084778;28;20020;-62
2021/11/01 05:45:28;;;;;;;9.07;1.45;;;19.30;85.00;;;;;;5086762;28;20398;-65
2021/11/01 05:48:00;;;;;;;6.65;1.75;;;19.40;85.00;;;;;;5082935;28;20062;-65
2021/11/01 05:50:32;;;;;;;5.28;2.08;;;19.50;84.80;;;;;;5087120;28;20486;-62
2021/11/01 05:53:01;;;;;;;3.80;1.48;;;19.50;83.80;;;;;;5081568;28;20013;-63
2021/11/01 06:06:28;;;;;;;18.25;2.75;;;19.50;83.80;;;;;;5088188;28;20631;-70
2021/11/01 06:14:21;;;;;;;8.40;2.57;;;19.60;84.10;;;;;;5093032;28;20127;-64
2021/11/01 06:16:47;;;;;;;8.23;3.00;;;19.70;83.50;;;;;;5090878;28;20014;-63
2021/11/01 06:19:14;;;;;;;12.18;2.63;;;19.70;83.20;;;;;;5092447;28;20073;-63
2021/11/01 06:21:42;;;;;;;14.10;3.85;;;19.70;82.50;;;;;;5091503;28;20031;-72
2021/11/01 06:24:27;;;;;;;14.60;3.22;;;19.70;82.20;;;;;;5091676;28;20016;-70
2021/11/01 06:26:54;;;;;;;10.35;2.65;;;19.70;81.90;;;;;;5091866;28;20064;-63
2021/11/01 06:29:25;;;;;;;11.65;4.53;;;19.70;82.20;;;;;;5091155;28;20025;-63
2021/11/01 06:32:04;;;;;;;14.90;3.10;;;19.80;81.90;;;;;;5087599;28;20368;-63
2021/11/01 06:38:59;;;;;;;8.18;2.53;;;19.80;81.90;;;;;;5090616;28;20064;-63
2021/11/01 06:41:02;;;;;;;2.50;0.83;;;19.90;79.00;;;;;;5089953;28;20051;-63
2021/11/01 06:43:15;;;;;;;7.43;2.92;;;19.80;76.90;;;;;;5073540;28;20028;-68
2021/11/01 07:17:37;;;;;;;10.07;1.83;;;18.80;82.20;;;;;;5089598;28;20020;-68
2021/11/01 07:20:22;;;;;;;11.23;3.75;;;18.70;82.40;;;;;;5087937;28;20028;-62
2021/11/01 08:22:58;;;;;;;11.48;3.53;;;18.40;88.40;;;;;;5084992;28;21008;-65
2021/11/01 09:03:30;;;;;;;3.97;0.82;;;17.80;90.30;;;;;;5080404;28;20077;-69
2021/11/01 09:26:59;;;;;;;7.18;2.17;;;18.30;86.30;;;;;;5080528;28;20039;-67
2021/11/01 09:42:54;;;;;;;4.85;2.38;;;18.40;84.70;;;;;;5086573;28;20058;-66
2021/11/01 09:45:23;;;;;;;5.55;1.50;;;18.40;85.20;;;;;;5084088;28;20024;-67
2021/11/01 09:47:51;;;;;;;4.70;2.33;;;18.50;85.60;;;;;;5085842;28;20024;-68
2021/11/01 09:50:22;;;;;;;7.35;1.52;;;18.60;86.00;;;;;;5085594;28;20023;-65
2021/11/01 09:52:57;;;;;;;8.35;1.80;;;18.60;85.90;;;;;;5083992;28;20026;-65
2021/11/01 10:00:47;;;;;;;6.15;1.50;;;18.80;85.50;;;;;;5022546;28;20400;-67
2021/11/01 10:03:14;;;;;;;6.07;2.53;;;18.80;84.20;;;;;;5082950;28;20467;-68
2021/11/01 10:05:53;;;;;;;10.23;3.17;;;18.80;83.30;;;;;;5082212;28;20466;-66
2021/11/01 10:08:20;;;;;;;5.10;1.58;;;18.90;82.90;;;;;;5082987;28;20024;-66
2021/11/01 10:10:46;;;;;;;3.63;1.15;;;19.00;83.20;;;;;;5083348;28;20047;-66
2021/11/01 10:13:14;;;;;;;1.92;1.20;;;19.10;83.30;;;;;;5084768;28;20008;-67
2021/11/01 10:18:27;;;;;;;99.78;81.53;;;19.20;82.80;;;;;;5083601;28;20051;-68
2021/11/01 10:20:56;;;;;;;16.50;8.48;;;19.30;81.20;;;;;;5082456;28;20493;-68
2021/11/01 10:23:32;;;;;;;16.73;3.05;;;19.40;80.10;;;;;;5083813;28;20012;-68
2021/11/01 10:26:16;;;;;;;5.15;1.38;;;19.40;80.10;;;;;;5081256;28;20040;-67
2021/11/01 10:28:53;;;;;;;5.78;1.40;;;19.50;79.80;;;;;;5081802;28;20381;-67
2021/11/01 10:31:23;;;;;;;5.82;1.23;;;19.60;79.20;;;;;;5083322;28;20442;-68
2021/11/01 10:34:03;;;;;;;15.48;2.22;;;19.60;77.80;;;;;;5082116;28;20128;-74
2021/11/01 10:36:34;;;;;;;6.35;1.35;;;19.80;77.70;;;;;;5081713;28;20070;-68
2021/11/01 10:39:09;;;;;;;7.10;1.60;;;19.90;78.30;;;;;;5082172;28;20035;-68
2021/11/01 10:58:32;;;;;;;2.35;1.05;;;21.00;74.00;;;;;;5082570;28;20059;-66
2021/11/01 11:12:06;;;;;;;6.60;1.30;;;21.60;68.10;;;;;;5081514;28;20114;-67
2021/11/01 11:49:34;;;;;;;5.07;1.13;;;21.20;65.70;;;;;;5088528;28;20426;-68
2021/11/01 11:52:06;;;;;;;5.93;1.20;;;21.20;66.40;;;;;;5087021;28;20028;-65
2021/11/01 11:54:34;;;;;;;19.75;15.73;;;21.10;66.70;;;;;;5086769;28;20421;-66
2021/11/01 11:57:04;;;;;;;13.93;11.52;;;21.20;66.80;;;;;;5086898;28;20077;-68
2021/11/01 11:59:37;;;;;;;6.88;2.80;;;21.10;66.90;;;;;;5082641;28;21613;-70
2021/11/01 12:02:09;;;;;;;3.70;1.00;;;21.10;68.30;;;;;;5087834;28;20110;-72
2021/11/01 12:04:43;;;;;;;7.45;2.00;;;21.00;68.90;;;;;;5085364;28;20103;-69
2021/11/01 12:07:13;;;;;;;7.13;1.52;;;21.00;68.90;;;;;;5087707;28;20028;-70
2021/11/01 12:09:53;;;;;;;4.97;1.52;;;21.00;69.50;;;;;;5087041;28;20012;-67
2021/11/01 12:12:55;;;;;;;3.83;1.02;;;21.20;70.00;;;;;;5086319;28;20031;-68
2021/11/01 12:18:00;;;;;;;3.67;1.55;;;21.40;67.80;;;;;;5082830;28;20055;-71
2021/11/01 12:20:27;;;;;;;3.40;1.30;;;21.40;66.70;;;;;;5068893;28;20502;-75
2021/11/01 12:23:03;;;;;;;1.80;1.10;;;21.40;65.70;;;;;;5086932;28;20050;-72
2021/11/01 12:25:39;;;;;;;9.73;3.65;;;21.30;64.20;;;;;;5086368;28;20020;-68
2021/11/01 12:28:12;;;;;;;1.25;0.73;;;21.30;63.70;;;;;;5086854;28;20375;-70
2021/11/01 12:30:43;;;;;;;11.05;8.77;;;21.20;62.60;;;;;;5085256;28;20028;-70
2021/11/01 12:33:11;;;;;;;7.78;6.78;;;21.10;62.10;;;;;;5085180;28;20101;-69
2021/11/01 12:35:44;;;;;;;3.50;1.33;;;21.20;62.60;;;;;;5086479;28;20030;-70
2021/11/01 12:38:19;;;;;;;2.03;0.77;;;21.40;62.70;;;;;;5085659;28;20047;-68
2021/11/01 12:49:41;;;;;;;;;;;22.20;62.00;;;;;;5086951;28;20035;-70
2021/11/01 12:57:29;;;;;;;;;;;22.20;59.90;;;;;;5086552;28;20039;-69
2021/11/01 12:59:56;;;;;;;6.68;1.63;;;22.10;59.90;;;;;;5085870;28;20165;-66
2021/11/01 13:02:34;;;;;;;5.35;1.10;;;22.00;59.30;;;;;;5086840;28;20090;-69
2021/11/01 13:05:06;;;;;;;7.60;1.80;;;21.90;60.20;;;;;;5085152;28;20023;-70
2021/11/01 13:12:50;;;;;;;4.00;1.10;;;22.20;60.20;;;;;;5089863;28;20012;-67
2021/11/01 13:18:12;;;;;;;;;;;22.30;60.10;;;;;;5090952;28;20051;-68
2021/11/01 13:20:58;;;;;;;2.08;0.82;;;22.20;54.60;;;;;;5090564;28;19908;-68
2021/11/01 13:23:28;;;;;;;5.20;1.08;;;22.00;56.30;;;;;;5090476;28;20028;-69
2021/11/01 13:28:44;;;;;;;6.10;2.00;;;21.50;60.20;;;;;;5090658;28;20418;-68
2021/11/01 13:40:15;;;;;;;7.75;1.20;;;20.50;70.60;;;;;;5086809;28;20036;-64
2021/11/01 13:42:54;;;;;;;5.38;1.05;;;20.40;71.60;;;;;;5085938;28;20052;-65
2021/11/01 13:45:21;;;;;;;3.50;1.10;;;20.40;72.80;;;;;;5087125;28;20115;-67
2021/11/01 13:47:54;;;;;;;3.45;0.90;;;20.40;73.10;;;;;;5087200;28;20391;-67
2021/11/01 13:50:25;;;;;;;1.35;0.70;;;20.40;71.80;;;;;;5088976;28;20012;-67
2021/11/01 13:53:19;;;;;;;3.38;0.77;;;20.30;69.70;;;;;;5087178;28;20032;-65
2021/11/01 13:55:48;;;;;;;1.23;0.70;;;20.30;71.50;;;;;;5086350;28;20016;-66
2021/11/01 14:03:37;;;;;;;4.70;1.20;;;20.40;71.20;;;;;;5090417;28;20379;-66
2021/11/01 14:14:25;;;;;;;4.95;1.58;;;20.40;67.20;;;;;;5088643;28;20020;-68
2021/11/01 14:28:18;;;;;;;6.85;1.40;;;20.30;65.90;;;;;;5088274;28;20058;-66
2021/11/01 14:31:03;;;;;;;16.23;2.25;;;20.20;64.50;;;;;;5087126;28;20082;-65
2021/11/01 15:06:40;;;;;;;11.32;1.90;;;19.40;70.20;;;;;;5085594;28;20130;-70
2021/11/01 15:24:42;;;;;;;4.38;1.92;;;19.10;72.60;;;;;;5085623;28;20061;-71
2021/11/01 15:33:07;;;;;;;5.85;1.45;;;18.80;65.40;;;;;;5085512;28;20038;-69
2021/11/01 15:35:45;;;;;;;7.03;1.88;;;18.90;66.40;;;;;;5087226;28;20491;-70
2021/11/01 15:38:21;;;;;;;12.15;2.05;;;19.00;67.20;;;;;;5087479;28;20069;-72
2021/11/01 16:18:50;;;;;;;8.43;2.88;;;19.50;64.20;;;;;;5085489;28;20103;-71
2021/11/01 16:21:21;;;;;;;10.70;2.72;;;19.50;63.50;;;;;;5087276;28;20023;-71
2021/11/01 16:23:47;;;;;;;6.25;1.83;;;19.60;63.20;;;;;;5085791;28;20024;-71
2021/11/01 16:26:23;;;;;;;9.85;2.13;;;19.50;62.40;;;;;;5086851;28;20474;-70
2021/11/01 16:28:59;;;;;;;9.38;2.40;;;19.40;62.90;;;;;;5085322;28;20031;-71
2021/11/01 16:31:34;;;;;;;6.18;2.13;;;19.40;63.50;;;;;;5085504;28;20028;-71
2021/11/01 16:34:10;;;;;;;8.68;2.05;;;19.40;63.40;;;;;;5086886;28;20100;-71
2021/11/01 16:39:23;;;;;;;12.93;3.22;;;19.30;63.80;;;;;;5087347;28;20574;-71
2021/11/01 16:41:52;;;;;;;7.85;1.60;;;19.30;63.70;;;;;;5083385;28;20016;-69
2021/11/01 16:44:30;;;;;;;10.82;2.70;;;19.40;64.20;;;;;;5086188;28;20406;-71
2021/11/01 16:46:58;;;;;;;9.43;1.98;;;19.30;64.50;;;;;;5085367;28;20028;-71
2021/11/01 16:49:28;;;;;;;11.65;2.72;;;19.30;65.20;;;;;;5084668;28;20019;-71
2021/11/01 16:51:54;;;;;;;6.25;1.92;;;19.20;65.50;;;;;;5086711;28;20015;-70
2021/11/01 16:54:29;;;;;;;10.02;2.63;;;19.20;66.10;;;;;;5085455;28;20498;-71
2021/11/01 16:57:11;;;;;;;8.23;2.38;;;19.20;66.20;;;;;;5086803;28;20787;-71
2021/11/01 16:59:47;;;;;;;12.10;2.35;;;19.20;66.10;;;;;;5083191;28;20031;-72
2021/11/01 17:02:33;;;;;;;6.32;1.65;;;19.10;65.90;;;;;;5085588;28;20055;-71
2021/11/01 17:05:10;;;;;;;9.75;2.10;;;19.10;66.50;;;;;;5084928;28;20028;-71
2021/11/01 17:27:32;;;;;;;10.35;3.17;;;19.00;64.20;;;;;;5083995;28;20457;-73
2021/11/01 18:41:40;;;;;;;13.18;3.38;;;18.10;71.00;;;;;;5072801;28;20166;-74
2021/11/01 18:52:11;;;;;;;15.82;2.80;;;17.90;71.20;;;;;;5085763;28;20081;-69
2021/11/01 18:54:41;;;;;;;9.50;3.50;;;17.90;71.10;;;;;;5085398;28;20008;-72
2021/11/01 18:57:10;;;;;;;12.70;3.88;;;17.80;70.40;;;;;;5085995;28;20078;-69
2021/11/01 18:59:40;;;;;;;42.17;28.83;;;17.80;70.60;;;;;;5085557;28;20031;-69
2021/11/01 19:07:49;;;;;;;79.60;60.55;;;17.80;70.90;;;;;;5083979;28;20511;-68
2021/11/01 19:11:00;;;;;;;34.65;23.90;;;17.80;70.60;;;;;;5085115;28;20024;-67
2021/11/01 20:09:27;;;;;;;;;;;17.20;72.20;;;;;;5085538;28;20016;-69
2021/11/01 20:12:13;;;;;;;5.90;1.80;;;17.20;73.10;;;;;;5084231;28;20248;-68
2021/11/01 21:27:02;;;;;;;;;;;16.70;75.10;;;;;;5082967;28;20096;-69
2021/11/01 21:29:33;;;;;;;14.35;7.38;;;16.80;75.60;;;;;;5083821;28;19912;-70
2021/11/01 21:32:01;;;;;;;15.23;6.40;;;16.90;75.70;;;;;;5087235;28;20023;-68
2021/11/01 21:34:44;;;;;;;13.23;6.78;;;16.90;75.50;;;;;;5086829;28;20048;-70
2021/11/01 21:37:11;;;;;;;7.05;3.45;;;16.90;75.60;;;;;;5086921;28;20095;-70
2021/11/01 21:39:38;;;;;;;9.98;3.78;;;17.00;75.60;;;;;;5085429;28;20353;-73
2021/11/01 21:42:05;;;;;;;7.78;2.50;;;17.00;75.60;;;;;;5086029;28;20048;-71
2021/11/01 21:44:35;;;;;;;7.38;3.20;;;17.10;75.70;;;;;;5085085;28;20005;-69
2021/11/01 21:47:01;;;;;;;9.50;2.22;;;17.10;76.00;;;;;;5085654;28;20050;-71
2021/11/01 21:49:28;;;;;;;3.70;2.10;;;17.20;75.40;;;;;;5086494;28;20073;-69
2021/11/01 21:51:56;;;;;;;7.47;2.45;;;17.20;75.20;;;;;;5087753;28;20031;-69
2021/11/01 21:54:27;;;;;;;11.18;3.13;;;17.20;74.70;;;;;;5087289;28;20028;-67
2021/11/01 21:57:21;;;;;;;10.55;2.75;;;17.30;74.60;;;;;;5086619;28;20099;-69
2021/11/01 22:24:15;;;;;;;8.30;1.88;;;17.30;73.60;;;;;;5086142;28;20020;-69
2021/11/01 22:45:21;;;;;;;4.53;1.27;;;17.00;73.60;;;;;;5085822;28;20521;-69
2021/11/01 22:48:19;;;;;;;4.15;1.10;;;17.00;73.80;;;;;;5087145;28;20031;-68
2021/11/01 22:59:18;;;;;;;7.90;2.17;;;16.90;72.80;;;;;;5016396;28;20022;-69
2021/11/01 23:01:48;;;;;;;3.60;1.63;;;17.00;72.60;;;;;;5072739;28;20384;-69
2021/11/01 23:31:41;;;;;;;8.45;1.75;;;17.00;73.20;;;;;;5086209;28;20652;-69
2021/11/01 23:34:11;;;;;;;4.43;1.35;;;16.90;73.10;;;;;;5085980;28;20484;-74
2021/11/01 23:36:40;;;;;;;8.48;1.88;;;17.00;73.20;;;;;;5084387;28;20023;-72
2021/11/01 23:39:08;;;;;;;10.35;1.88;;;17.00;73.60;;;;;;5085437;28;20088;-72
2021/11/01 23:41:37;;;;;;;7.57;2.42;;;17.00;73.70;;;;;;5084649;28;20408;-69
2021/11/01 23:44:03;;;;;;;8.68;1.77;;;17.00;74.00;;;;;;5085057;28;20028;-71
2021/11/01 23:46:30;;;;;;;3.42;1.77;;;17.00;73.40;;;;;;5084369;28;20024;-70
2021/11/01 23:48:57;;;;;;;6.40;1.65;;;17.00;72.90;;;;;;5085813;28;20024;-69
2021/11/01 23:51:36;;;;;;;7.28;1.50;;;17.00;73.20;;;;;;5086535;28;20016;-69
2021/11/01 23:56:35;;;;;;;8.48;1.85;;;17.00;73.20;;;;;;5086888;28;20482;-71
2021/11/01 23:59:02;;;;;;;7.05;1.35;;;17.00;73.20;;;;;;5086669;28;20058;-69
